sensor_id;sensor_type;location;lat;lon;timestamp;P1;durP1;ratioP1;P2;durP2;ratioP2
30818;SDS011;17546;42.674;23.284;2023-06-05T00:02:00;11.75;;;7.15;;
30818;SDS011;17546;42.674;23.284;2023-06-05T00:04:25;16.17;;;7.72;;
30818;SDS011;17546;42.674;23.284;2023-06-05T00:06:53;11.77;;;6.78;;
30818;SDS011;17546;42.674;23.284;2023-06-05T00:09:18;10.85;;;7.55;;
30818;SDS011;17546;42.674;23.284;2023-06-05T00:11:44;14.55;;;7.10;;
30818;SDS011;17546;42.674;23.284;2023-06-05T00:14:10;12.95;;;6.97;;
30818;SDS011;17546;42.674;23.284;2023-06-05T00:16:35;16.70;;;7.80;;
30818;SDS011;17546;42.674;23.284;2023-06-05T00:19:01;14.43;;;7.82;;
30818;SDS011;17546;42.674;23.284;2023-06-05T00:21:27;15.43;;;7.60;;
30818;SDS011;17546;42.674;23.284;2023-06-05T00:23:53;11.88;;;7.90;;
30818;SDS011;17546;42.674;23.284;2023-06-05T00:26:18;15.40;;;8.50;;
30818;SDS011;17546;42.674;23.284;2023-06-05T00:28:44;10.52;;;7.90;;
30818;SDS011;17546;42.674;23.284;2023-06-05T00:31:09;11.38;;;7.80;;
30818;SDS011;17546;42.674;23.284;2023-06-05T00:33:38;14.05;;;7.72;;
30818;SDS011;17546;42.674;23.284;2023-06-05T00:36:04;21.00;;;7.95;;
30818;SDS011;17546;42.674;23.284;2023-06-05T00:38:29;11.57;;;7.53;;
30818;SDS011;17546;42.674;23.284;2023-06-05T00:40:54;13.85;;;7.60;;
30818;SDS011;17546;42.674;23.284;2023-06-05T00:43:20;13.43;;;7.63;;
30818;SDS011;17546;42.674;23.284;2023-06-05T00:45:45;14.05;;;8.07;;
30818;SDS011;17546;42.674;23.284;2023-06-05T00:48:18;14.02;;;8.23;;
30818;SDS011;17546;42.674;23.284;2023-06-05T00:50:44;12.68;;;8.20;;
30818;SDS011;17546;42.674;23.284;2023-06-05T00:53:10;16.30;;;8.80;;
30818;SDS011;17546;42.674;23.284;2023-06-05T00:55:37;17.63;;;8.90;;
30818;SDS011;17546;42.674;23.284;2023-06-05T00:58:02;17.05;;;8.90;;
30818;SDS011;17546;42.674;23.284;2023-06-05T01:00:29;12.07;;;8.52;;
30818;SDS011;17546;42.674;23.284;2023-06-05T01:02:54;13.90;;;9.05;;
30818;SDS011;17546;42.674;23.284;2023-06-05T01:05:21;22.08;;;8.43;;
30818;SDS011;17546;42.674;23.284;2023-06-05T01:07:47;11.57;;;7.85;;
30818;SDS011;17546;42.674;23.284;2023-06-05T01:10:13;11.48;;;8.32;;
30818;SDS011;17546;42.674;23.284;2023-06-05T01:15:47;11.95;;;8.35;;
30818;SDS011;17546;42.674;23.284;2023-06-05T01:18:13;16.35;;;8.50;;
30818;SDS011;17546;42.674;23.284;2023-06-05T01:20:40;17.75;;;8.80;;
30818;SDS011;17546;42.674;23.284;2023-06-05T01:23:07;14.75;;;8.80;;
30818;SDS011;17546;42.674;23.284;2023-06-05T01:25:33;22.35;;;8.68;;
30818;SDS011;17546;42.674;23.284;2023-06-05T01:33:17;18.13;;;9.32;;
30818;SDS011;17546;42.674;23.284;2023-06-05T01:35:50;14.07;;;9.32;;
30818;SDS011;17546;42.674;23.284;2023-06-05T01:38:19;19.17;;;10.27;;
30818;SDS011;17546;42.674;23.284;2023-06-05T01:40:45;14.75;;;9.43;;
30818;SDS011;17546;42.674;23.284;2023-06-05T01:43:12;18.02;;;9.27;;
30818;SDS011;17546;42.674;23.284;2023-06-05T01:45:38;16.33;;;9.13;;
30818;SDS011;17546;42.674;23.284;2023-06-05T01:48:06;13.65;;;8.70;;
30818;SDS011;17546;42.674;23.284;2023-06-05T01:50:35;14.38;;;8.85;;
30818;SDS011;17546;42.674;23.284;2023-06-05T01:53:02;17.27;;;9.00;;
30818;SDS011;17546;42.674;23.284;2023-06-05T01:55:28;17.10;;;9.82;;
30818;SDS011;17546;42.674;23.284;2023-06-05T01:57:54;20.45;;;9.90;;
30818;SDS011;17546;42.674;23.284;2023-06-05T02:00:19;13.77;;;9.00;;
30818;SDS011;17546;42.674;23.284;2023-06-05T02:02:46;18.63;;;9.00;;
30818;SDS011;17546;42.674;23.284;2023-06-05T02:05:13;15.07;;;9.18;;
30818;SDS011;17546;42.674;23.284;2023-06-05T02:07:40;14.88;;;9.35;;
30818;SDS011;17546;42.674;23.284;2023-06-05T02:10:32;14.05;;;9.55;;
30818;SDS011;17546;42.674;23.284;2023-06-05T02:12:58;18.08;;;8.73;;
30818;SDS011;17546;42.674;23.284;2023-06-05T02:15:23;17.63;;;9.30;;
30818;SDS011;17546;42.674;23.284;2023-06-05T02:17:49;17.67;;;8.82;;
30818;SDS011;17546;42.674;23.284;2023-06-05T02:20:37;19.30;;;9.02;;
30818;SDS011;17546;42.674;23.284;2023-06-05T02:23:02;13.88;;;9.20;;
30818;SDS011;17546;42.674;23.284;2023-06-05T02:25:30;17.75;;;9.75;;
30818;SDS011;17546;42.674;23.284;2023-06-05T02:27:58;16.00;;;9.38;;
30818;SDS011;17546;42.674;23.284;2023-06-05T02:30:24;18.13;;;9.70;;
30818;SDS011;17546;42.674;23.284;2023-06-05T02:32:50;20.67;;;9.68;;
30818;SDS011;17546;42.674;23.284;2023-06-05T02:35:21;22.90;;;9.80;;
30818;SDS011;17546;42.674;23.284;2023-06-05T02:37:48;15.02;;;8.63;;
30818;SDS011;17546;42.674;23.284;2023-06-05T02:40:13;11.70;;;8.90;;
30818;SDS011;17546;42.674;23.284;2023-06-05T02:42:39;19.42;;;9.43;;
30818;SDS011;17546;42.674;23.284;2023-06-05T02:45:06;16.08;;;9.50;;
30818;SDS011;17546;42.674;23.284;2023-06-05T02:47:32;20.48;;;9.07;;
30818;SDS011;17546;42.674;23.284;2023-06-05T02:49:58;17.40;;;8.75;;
30818;SDS011;17546;42.674;23.284;2023-06-05T02:52:24;16.45;;;9.15;;
30818;SDS011;17546;42.674;23.284;2023-06-05T02:54:50;13.77;;;8.93;;
30818;SDS011;17546;42.674;23.284;2023-06-05T02:57:16;23.73;;;9.20;;
30818;SDS011;17546;42.674;23.284;2023-06-05T02:59:42;19.10;;;9.20;;
30818;SDS011;17546;42.674;23.284;2023-06-05T03:02:10;16.35;;;9.40;;
30818;SDS011;17546;42.674;23.284;2023-06-05T03:04:36;19.60;;;9.07;;
30818;SDS011;17546;42.674;23.284;2023-06-05T03:07:04;14.98;;;8.80;;
30818;SDS011;17546;42.674;23.284;2023-06-05T03:09:30;12.45;;;8.57;;
30818;SDS011;17546;42.674;23.284;2023-06-05T03:11:57;14.52;;;9.40;;
30818;SDS011;17546;42.674;23.284;2023-06-05T03:14:24;16.35;;;10.30;;
30818;SDS011;17546;42.674;23.284;2023-06-05T03:16:51;19.58;;;9.50;;
30818;SDS011;17546;42.674;23.284;2023-06-05T03:19:18;19.95;;;9.40;;
30818;SDS011;17546;42.674;23.284;2023-06-05T03:21:44;17.40;;;9.60;;
30818;SDS011;17546;42.674;23.284;2023-06-05T03:24:13;18.00;;;9.68;;
30818;SDS011;17546;42.674;23.284;2023-06-05T03:26:42;14.45;;;9.48;;
30818;SDS011;17546;42.674;23.284;2023-06-05T03:29:09;19.45;;;9.80;;
30818;SDS011;17546;42.674;23.284;2023-06-05T03:31:35;16.10;;;11.10;;
30818;SDS011;17546;42.674;23.284;2023-06-05T03:34:01;22.58;;;12.23;;
30818;SDS011;17546;42.674;23.284;2023-06-05T03:36:28;23.48;;;14.07;;
30818;SDS011;17546;42.674;23.284;2023-06-05T03:38:55;26.42;;;15.65;;
30818;SDS011;17546;42.674;23.284;2023-06-05T03:41:22;27.55;;;17.00;;
30818;SDS011;17546;42.674;23.284;2023-06-05T03:43:47;30.48;;;16.50;;
30818;SDS011;17546;42.674;23.284;2023-06-05T03:46:14;29.40;;;15.32;;
30818;SDS011;17546;42.674;23.284;2023-06-05T03:48:43;27.17;;;14.57;;
30818;SDS011;17546;42.674;23.284;2023-06-05T03:51:25;30.90;;;15.40;;
30818;SDS011;17546;42.674;23.284;2023-06-05T03:53:55;20.73;;;14.30;;
30818;SDS011;17546;42.674;23.284;2023-06-05T03:56:23;22.38;;;15.82;;
30818;SDS011;17546;42.674;23.284;2023-06-05T03:58:52;26.02;;;14.50;;
30818;SDS011;17546;42.674;23.284;2023-06-05T04:01:18;19.60;;;13.90;;
30818;SDS011;17546;42.674;23.284;2023-06-05T04:03:43;19.42;;;13.70;;
30818;SDS011;17546;42.674;23.284;2023-06-05T04:06:08;21.63;;;13.98;;
30818;SDS011;17546;42.674;23.284;2023-06-05T04:08:34;25.48;;;14.52;;
30818;SDS011;17546;42.674;23.284;2023-06-05T04:11:00;30.65;;;15.18;;
30818;SDS011;17546;42.674;23.284;2023-06-05T04:13:26;26.60;;;15.35;;
30818;SDS011;17546;42.674;23.284;2023-06-05T04:15:52;21.67;;;14.82;;
30818;SDS011;17546;42.674;23.284;2023-06-05T04:18:17;27.98;;;16.75;;
30818;SDS011;17546;42.674;23.284;2023-06-05T04:20:43;30.88;;;16.00;;
30818;SDS011;17546;42.674;23.284;2023-06-05T04:23:08;25.23;;;15.38;;
30818;SDS011;17546;42.674;23.284;2023-06-05T04:25:39;25.75;;;16.60;;
30818;SDS011;17546;42.674;23.284;2023-06-05T04:28:11;31.58;;;16.38;;
30818;SDS011;17546;42.674;23.284;2023-06-05T04:30:36;33.33;;;17.10;;
30818;SDS011;17546;42.674;23.284;2023-06-05T04:33:02;34.58;;;17.13;;
30818;SDS011;17546;42.674;23.284;2023-06-05T04:35:31;33.08;;;16.98;;
30818;SDS011;17546;42.674;23.284;2023-06-05T04:37:58;28.05;;;17.77;;
30818;SDS011;17546;42.674;23.284;2023-06-05T04:40:24;28.48;;;18.10;;
30818;SDS011;17546;42.674;23.284;2023-06-05T04:42:51;27.58;;;17.98;;
30818;SDS011;17546;42.674;23.284;2023-06-05T04:45:19;31.83;;;18.80;;
30818;SDS011;17546;42.674;23.284;2023-06-05T04:47:44;30.38;;;19.15;;
30818;SDS011;17546;42.674;23.284;2023-06-05T04:50:20;28.35;;;19.15;;
30818;SDS011;17546;42.674;23.284;2023-06-05T04:52:53;37.47;;;19.55;;
30818;SDS011;17546;42.674;23.284;2023-06-05T04:55:19;37.47;;;18.98;;
30818;SDS011;17546;42.674;23.284;2023-06-05T04:57:45;27.30;;;19.50;;
30818;SDS011;17546;42.674;23.284;2023-06-05T05:00:13;32.28;;;20.55;;
30818;SDS011;17546;42.674;23.284;2023-06-05T05:02:39;38.08;;;21.65;;
30818;SDS011;17546;42.674;23.284;2023-06-05T05:05:05;31.48;;;20.75;;
30818;SDS011;17546;42.674;23.284;2023-06-05T05:07:31;40.08;;;23.27;;
30818;SDS011;17546;42.674;23.284;2023-06-05T05:09:57;38.33;;;21.65;;
30818;SDS011;17546;42.674;23.284;2023-06-05T05:12:22;37.22;;;22.08;;
30818;SDS011;17546;42.674;23.284;2023-06-05T05:14:47;38.40;;;22.67;;
30818;SDS011;17546;42.674;23.284;2023-06-05T05:17:13;34.05;;;22.23;;
30818;SDS011;17546;42.674;23.284;2023-06-05T05:19:44;35.63;;;21.95;;
30818;SDS011;17546;42.674;23.284;2023-06-05T05:22:10;33.70;;;21.98;;
30818;SDS011;17546;42.674;23.284;2023-06-05T05:24:37;30.90;;;22.27;;
30818;SDS011;17546;42.674;23.284;2023-06-05T05:27:03;29.52;;;20.88;;
30818;SDS011;17546;42.674;23.284;2023-06-05T05:29:28;23.88;;;14.90;;
30818;SDS011;17546;42.674;23.284;2023-06-05T05:31:54;28.92;;;18.23;;
30818;SDS011;17546;42.674;23.284;2023-06-05T05:34:20;30.08;;;19.13;;
30818;SDS011;17546;42.674;23.284;2023-06-05T05:36:46;32.28;;;18.88;;
30818;SDS011;17546;42.674;23.284;2023-06-05T05:39:11;32.30;;;17.00;;
30818;SDS011;17546;42.674;23.284;2023-06-05T05:41:37;27.08;;;17.73;;
30818;SDS011;17546;42.674;23.284;2023-06-05T05:44:02;31.52;;;18.27;;
30818;SDS011;17546;42.674;23.284;2023-06-05T05:46:28;25.80;;;17.15;;
30818;SDS011;17546;42.674;23.284;2023-06-05T05:48:55;34.95;;;18.27;;
30818;SDS011;17546;42.674;23.284;2023-06-05T05:51:21;33.85;;;17.63;;
30818;SDS011;17546;42.674;23.284;2023-06-05T05:53:47;25.73;;;16.92;;
30818;SDS011;17546;42.674;23.284;2023-06-05T05:56:12;28.23;;;16.88;;
30818;SDS011;17546;42.674;23.284;2023-06-05T05:58:38;29.08;;;18.30;;
30818;SDS011;17546;42.674;23.284;2023-06-05T06:01:03;24.45;;;16.35;;
30818;SDS011;17546;42.674;23.284;2023-06-05T06:03:29;25.83;;;15.02;;
30818;SDS011;17546;42.674;23.284;2023-06-05T06:05:55;20.25;;;15.13;;
30818;SDS011;17546;42.674;23.284;2023-06-05T06:08:21;25.25;;;15.85;;
30818;SDS011;17546;42.674;23.284;2023-06-05T06:10:47;27.02;;;15.48;;
30818;SDS011;17546;42.674;23.284;2023-06-05T06:13:13;23.30;;;14.95;;
30818;SDS011;17546;42.674;23.284;2023-06-05T06:15:38;20.05;;;14.65;;
30818;SDS011;17546;42.674;23.284;2023-06-05T06:18:07;24.13;;;14.75;;
30818;SDS011;17546;42.674;23.284;2023-06-05T06:20:33;26.45;;;14.85;;
30818;SDS011;17546;42.674;23.284;2023-06-05T06:22:59;20.65;;;13.82;;
30818;SDS011;17546;42.674;23.284;2023-06-05T06:25:25;21.30;;;14.38;;
30818;SDS011;17546;42.674;23.284;2023-06-05T06:27:57;24.50;;;13.45;;
30818;SDS011;17546;42.674;23.284;2023-06-05T06:30:24;22.08;;;14.57;;
30818;SDS011;17546;42.674;23.284;2023-06-05T06:32:49;28.38;;;13.30;;
30818;SDS011;17546;42.674;23.284;2023-06-05T06:35:15;26.40;;;14.10;;
30818;SDS011;17546;42.674;23.284;2023-06-05T06:37:41;22.23;;;14.05;;
30818;SDS011;17546;42.674;23.284;2023-06-05T06:40:07;27.35;;;14.32;;
30818;SDS011;17546;42.674;23.284;2023-06-05T06:42:39;19.60;;;13.27;;
30818;SDS011;17546;42.674;23.284;2023-06-05T06:45:05;27.73;;;14.82;;
30818;SDS011;17546;42.674;23.284;2023-06-05T06:47:31;24.77;;;14.55;;
30818;SDS011;17546;42.674;23.284;2023-06-05T06:49:56;23.55;;;14.15;;
30818;SDS011;17546;42.674;23.284;2023-06-05T06:52:22;26.20;;;14.40;;
30818;SDS011;17546;42.674;23.284;2023-06-05T06:54:48;26.77;;;14.55;;
30818;SDS011;17546;42.674;23.284;2023-06-05T06:57:14;21.63;;;14.10;;
30818;SDS011;17546;42.674;23.284;2023-06-05T06:59:39;24.45;;;14.68;;
30818;SDS011;17546;42.674;23.284;2023-06-05T07:02:09;22.05;;;14.35;;
30818;SDS011;17546;42.674;23.284;2023-06-05T07:04:37;31.27;;;15.30;;
30818;SDS011;17546;42.674;23.284;2023-06-05T07:07:03;26.88;;;15.93;;
30818;SDS011;17546;42.674;23.284;2023-06-05T07:09:29;22.48;;;15.30;;
30818;SDS011;17546;42.674;23.284;2023-06-05T07:11:54;24.17;;;13.93;;
30818;SDS011;17546;42.674;23.284;2023-06-05T07:14:20;21.45;;;14.52;;
30818;SDS011;17546;42.674;23.284;2023-06-05T07:16:46;21.70;;;13.93;;
30818;SDS011;17546;42.674;23.284;2023-06-05T07:19:13;22.05;;;15.13;;
30818;SDS011;17546;42.674;23.284;2023-06-05T07:21:40;22.70;;;14.50;;
30818;SDS011;17546;42.674;23.284;2023-06-05T07:24:06;25.67;;;15.77;;
30818;SDS011;17546;42.674;23.284;2023-06-05T07:26:32;29.30;;;16.65;;
30818;SDS011;17546;42.674;23.284;2023-06-05T07:28:58;26.80;;;16.77;;
30818;SDS011;17546;42.674;23.284;2023-06-05T07:31:24;27.58;;;16.10;;
30818;SDS011;17546;42.674;23.284;2023-06-05T07:33:49;25.83;;;15.77;;
30818;SDS011;17546;42.674;23.284;2023-06-05T07:36:14;26.85;;;17.15;;
30818;SDS011;17546;42.674;23.284;2023-06-05T07:38:40;30.10;;;17.60;;
30818;SDS011;17546;42.674;23.284;2023-06-05T07:41:08;30.42;;;18.38;;
30818;SDS011;17546;42.674;23.284;2023-06-05T07:43:36;38.50;;;18.38;;
30818;SDS011;17546;42.674;23.284;2023-06-05T07:46:04;27.45;;;16.88;;
30818;SDS011;17546;42.674;23.284;2023-06-05T07:48:30;26.35;;;17.30;;
30818;SDS011;17546;42.674;23.284;2023-06-05T07:50:55;31.27;;;17.05;;
30818;SDS011;17546;42.674;23.284;2023-06-05T07:53:20;25.67;;;16.45;;
30818;SDS011;17546;42.674;23.284;2023-06-05T07:55:46;27.98;;;17.25;;
30818;SDS011;17546;42.674;23.284;2023-06-05T07:58:12;27.35;;;17.40;;
30818;SDS011;17546;42.674;23.284;2023-06-05T08:00:38;28.50;;;17.95;;
30818;SDS011;17546;42.674;23.284;2023-06-05T08:03:06;33.78;;;18.08;;
30818;SDS011;17546;42.674;23.284;2023-06-05T08:05:31;27.95;;;16.98;;
30818;SDS011;17546;42.674;23.284;2023-06-05T08:07:58;34.72;;;16.20;;
30818;SDS011;17546;42.674;23.284;2023-06-05T08:10:23;26.15;;;16.25;;
30818;SDS011;17546;42.674;23.284;2023-06-05T08:12:49;26.25;;;17.50;;
30818;SDS011;17546;42.674;23.284;2023-06-05T08:15:14;24.85;;;16.88;;
30818;SDS011;17546;42.674;23.284;2023-06-05T08:17:40;32.10;;;17.83;;
30818;SDS011;17546;42.674;23.284;2023-06-05T08:20:05;32.17;;;17.10;;
30818;SDS011;17546;42.674;23.284;2023-06-05T08:22:32;28.77;;;15.95;;
30818;SDS011;17546;42.674;23.284;2023-06-05T08:24:57;27.40;;;15.85;;
30818;SDS011;17546;42.674;23.284;2023-06-05T08:27:25;27.70;;;16.02;;
30818;SDS011;17546;42.674;23.284;2023-06-05T08:29:54;25.48;;;15.00;;
30818;SDS011;17546;42.674;23.284;2023-06-05T08:32:19;22.63;;;15.15;;
30818;SDS011;17546;42.674;23.284;2023-06-05T08:34:46;25.70;;;16.25;;
30818;SDS011;17546;42.674;23.284;2023-06-05T08:37:11;28.60;;;16.25;;
30818;SDS011;17546;42.674;23.284;2023-06-05T08:39:37;25.55;;;16.17;;
30818;SDS011;17546;42.674;23.284;2023-06-05T08:42:02;37.08;;;16.58;;
30818;SDS011;17546;42.674;23.284;2023-06-05T08:44:28;30.63;;;16.77;;
30818;SDS011;17546;42.674;23.284;2023-06-05T08:47:01;27.25;;;16.08;;
30818;SDS011;17546;42.674;23.284;2023-06-05T08:49:28;26.30;;;16.15;;
30818;SDS011;17546;42.674;23.284;2023-06-05T08:52:07;22.98;;;15.52;;
30818;SDS011;17546;42.674;23.284;2023-06-05T08:54:39;27.08;;;15.02;;
30818;SDS011;17546;42.674;23.284;2023-06-05T08:57:06;25.05;;;14.68;;
30818;SDS011;17546;42.674;23.284;2023-06-05T08:59:32;22.67;;;15.18;;
30818;SDS011;17546;42.674;23.284;2023-06-05T09:01:58;23.90;;;15.02;;
30818;SDS011;17546;42.674;23.284;2023-06-05T09:04:24;29.60;;;15.25;;
30818;SDS011;17546;42.674;23.284;2023-06-05T09:06:55;24.13;;;14.70;;
30818;SDS011;17546;42.674;23.284;2023-06-05T09:09:24;23.05;;;14.70;;
30818;SDS011;17546;42.674;23.284;2023-06-05T09:12:03;30.80;;;14.55;;
30818;SDS011;17546;42.674;23.284;2023-06-05T09:14:30;23.63;;;15.25;;
30818;SDS011;17546;42.674;23.284;2023-06-05T09:17:01;24.33;;;15.00;;
30818;SDS011;17546;42.674;23.284;2023-06-05T09:19:37;25.80;;;15.02;;
30818;SDS011;17546;42.674;23.284;2023-06-05T09:22:08;27.48;;;15.18;;
30818;SDS011;17546;42.674;23.284;2023-06-05T09:24:35;24.38;;;14.80;;
30818;SDS011;17546;42.674;23.284;2023-06-05T09:31:57;20.38;;;13.63;;
30818;SDS011;17546;42.674;23.284;2023-06-05T09:34:25;26.60;;;14.10;;
30818;SDS011;17546;42.674;23.284;2023-06-05T09:36:58;23.50;;;14.00;;
30818;SDS011;17546;42.674;23.284;2023-06-05T09:39:25;24.77;;;13.70;;
30818;SDS011;17546;42.674;23.284;2023-06-05T09:41:52;22.83;;;14.50;;
30818;SDS011;17546;42.674;23.284;2023-06-05T09:44:19;21.55;;;13.45;;
30818;SDS011;17546;42.674;23.284;2023-06-05T09:46:55;27.42;;;14.20;;
30818;SDS011;17546;42.674;23.284;2023-06-05T09:49:31;24.98;;;13.70;;
30818;SDS011;17546;42.674;23.284;2023-06-05T09:51:58;23.80;;;13.70;;
30818;SDS011;17546;42.674;23.284;2023-06-05T09:54:26;27.80;;;14.18;;
30818;SDS011;17546;42.674;23.284;2023-06-05T09:56:56;27.67;;;13.90;;
30818;SDS011;17546;42.674;23.284;2023-06-05T09:59:29;28.98;;;14.32;;
30818;SDS011;17546;42.674;23.284;2023-06-05T10:01:59;26.67;;;13.63;;
30818;SDS011;17546;42.674;23.284;2023-06-05T10:04:28;27.23;;;14.13;;
30818;SDS011;17546;42.674;23.284;2023-06-05T10:06:55;26.15;;;14.05;;
30818;SDS011;17546;42.674;23.284;2023-06-05T10:09:24;23.30;;;13.10;;
30818;SDS011;17546;42.674;23.284;2023-06-05T10:11:50;27.40;;;14.15;;
30818;SDS011;17546;42.674;23.284;2023-06-05T10:14:17;24.27;;;14.07;;
30818;SDS011;17546;42.674;23.284;2023-06-05T10:16:44;34.28;;;14.05;;
30818;SDS011;17546;42.674;23.284;2023-06-05T10:19:15;24.30;;;13.57;;
30818;SDS011;17546;42.674;23.284;2023-06-05T10:21:43;20.95;;;12.65;;
30818;SDS011;17546;42.674;23.284;2023-06-05T10:24:12;28.20;;;13.68;;
30818;SDS011;17546;42.674;23.284;2023-06-05T10:29:43;24.00;;;13.70;;
30818;SDS011;17546;42.674;23.284;2023-06-05T10:40:32;24.88;;;12.13;;
30818;SDS011;17546;42.674;23.284;2023-06-05T10:51:43;28.25;;;11.82;;
30818;SDS011;17546;42.674;23.284;2023-06-05T10:54:14;29.50;;;11.65;;
30818;SDS011;17546;42.674;23.284;2023-06-05T10:57:06;21.95;;;10.52;;
30818;SDS011;17546;42.674;23.284;2023-06-05T10:59:32;13.63;;;9.98;;
30818;SDS011;17546;42.674;23.284;2023-06-05T11:12:36;15.68;;;9.07;;
30818;SDS011;17546;42.674;23.284;2023-06-05T11:15:13;14.55;;;8.00;;
30818;SDS011;17546;42.674;23.284;2023-06-05T11:17:40;12.68;;;7.50;;
30818;SDS011;17546;42.674;23.284;2023-06-05T11:27:43;13.15;;;6.50;;
30818;SDS011;17546;42.674;23.284;2023-06-05T11:30:15;12.15;;;7.30;;
30818;SDS011;17546;42.674;23.284;2023-06-05T11:32:42;14.05;;;7.47;;
30818;SDS011;17546;42.674;23.284;2023-06-05T11:35:11;20.13;;;7.88;;
30818;SDS011;17546;42.674;23.284;2023-06-05T11:37:37;21.50;;;7.90;;
30818;SDS011;17546;42.674;23.284;2023-06-05T11:40:04;14.10;;;7.25;;
30818;SDS011;17546;42.674;23.284;2023-06-05T11:42:34;14.23;;;7.15;;
30818;SDS011;17546;42.674;23.284;2023-06-05T11:45:00;14.40;;;7.10;;
30818;SDS011;17546;42.674;23.284;2023-06-05T11:47:26;14.30;;;7.35;;
30818;SDS011;17546;42.674;23.284;2023-06-05T11:50:11;11.30;;;6.97;;
30818;SDS011;17546;42.674;23.284;2023-06-05T11:52:38;13.63;;;7.07;;
30818;SDS011;17546;42.674;23.284;2023-06-05T11:55:18;23.45;;;8.55;;
30818;SDS011;17546;42.674;23.284;2023-06-05T11:57:47;15.98;;;6.55;;
30818;SDS011;17546;42.674;23.284;2023-06-05T12:00:14;14.23;;;6.20;;
30818;SDS011;17546;42.674;23.284;2023-06-05T12:02:41;21.25;;;7.03;;
30818;SDS011;17546;42.674;23.284;2023-06-05T12:05:08;19.02;;;7.68;;
30818;SDS011;17546;42.674;23.284;2023-06-05T12:07:37;10.55;;;6.22;;
30818;SDS011;17546;42.674;23.284;2023-06-05T12:10:05;15.88;;;6.40;;
30818;SDS011;17546;42.674;23.284;2023-06-05T12:12:32;17.88;;;6.80;;
30818;SDS011;17546;42.674;23.284;2023-06-05T12:15:13;14.23;;;6.10;;
30818;SDS011;17546;42.674;23.284;2023-06-05T12:17:48;8.70;;;6.20;;
30818;SDS011;17546;42.674;23.284;2023-06-05T12:20:19;11.30;;;6.00;;
30818;SDS011;17546;42.674;23.284;2023-06-05T12:22:46;18.27;;;6.75;;
30818;SDS011;17546;42.674;23.284;2023-06-05T12:27:41;9.88;;;5.57;;
30818;SDS011;17546;42.674;23.284;2023-06-05T12:30:07;8.77;;;6.00;;
30818;SDS011;17546;42.674;23.284;2023-06-05T12:32:34;21.88;;;5.97;;
30818;SDS011;17546;42.674;23.284;2023-06-05T12:35:00;11.73;;;6.05;;
30818;SDS011;17546;42.674;23.284;2023-06-05T12:37:26;7.70;;;5.50;;
30818;SDS011;17546;42.674;23.284;2023-06-05T12:40:04;10.50;;;6.05;;
30818;SDS011;17546;42.674;23.284;2023-06-05T12:42:36;12.18;;;6.80;;
30818;SDS011;17546;42.674;23.284;2023-06-05T12:45:03;42.80;;;6.72;;
30818;SDS011;17546;42.674;23.284;2023-06-05T12:47:30;21.92;;;6.30;;
30818;SDS011;17546;42.674;23.284;2023-06-05T12:49:55;12.48;;;6.13;;
30818;SDS011;17546;42.674;23.284;2023-06-05T12:52:23;15.88;;;6.15;;
30818;SDS011;17546;42.674;23.284;2023-06-05T12:54:51;11.05;;;5.90;;
30818;SDS011;17546;42.674;23.284;2023-06-05T12:57:18;68.15;;;10.25;;
30818;SDS011;17546;42.674;23.284;2023-06-05T12:59:46;22.85;;;6.15;;
30818;SDS011;17546;42.674;23.284;2023-06-05T13:02:12;11.63;;;5.93;;
30818;SDS011;17546;42.674;23.284;2023-06-05T13:04:38;9.68;;;5.90;;
30818;SDS011;17546;42.674;23.284;2023-06-05T13:07:04;9.73;;;5.45;;
30818;SDS011;17546;42.674;23.284;2023-06-05T13:09:32;10.88;;;5.78;;
30818;SDS011;17546;42.674;23.284;2023-06-05T13:11:58;10.00;;;6.07;;
30818;SDS011;17546;42.674;23.284;2023-06-05T13:14:28;7.50;;;5.43;;
30818;SDS011;17546;42.674;23.284;2023-06-05T13:16:57;23.85;;;6.70;;
30818;SDS011;17546;42.674;23.284;2023-06-05T13:19:24;13.10;;;6.00;;
30818;SDS011;17546;42.674;23.284;2023-06-05T13:21:49;18.17;;;5.78;;
30818;SDS011;17546;42.674;23.284;2023-06-05T13:24:15;11.18;;;5.28;;
30818;SDS011;17546;42.674;23.284;2023-06-05T13:26:41;10.70;;;5.22;;
30818;SDS011;17546;42.674;23.284;2023-06-05T13:29:08;23.13;;;6.47;;
30818;SDS011;17546;42.674;23.284;2023-06-05T13:31:34;16.48;;;5.38;;
30818;SDS011;17546;42.674;23.284;2023-06-05T13:33:59;9.20;;;4.88;;
30818;SDS011;17546;42.674;23.284;2023-06-05T13:36:25;11.93;;;5.35;;
30818;SDS011;17546;42.674;23.284;2023-06-05T13:38:51;13.50;;;5.07;;
30818;SDS011;17546;42.674;23.284;2023-06-05T13:41:16;7.15;;;4.80;;
30818;SDS011;17546;42.674;23.284;2023-06-05T13:43:42;18.85;;;5.40;;
30818;SDS011;17546;42.674;23.284;2023-06-05T13:46:08;17.10;;;5.43;;
30818;SDS011;17546;42.674;23.284;2023-06-05T13:48:33;16.95;;;5.30;;
30818;SDS011;17546;42.674;23.284;2023-06-05T13:50:59;12.70;;;5.82;;
30818;SDS011;17546;42.674;23.284;2023-06-05T13:53:25;8.65;;;5.05;;
30818;SDS011;17546;42.674;23.284;2023-06-05T13:55:52;8.43;;;4.80;;
30818;SDS011;17546;42.674;23.284;2023-06-05T13:58:17;10.02;;;5.20;;
30818;SDS011;17546;42.674;23.284;2023-06-05T14:00:43;16.08;;;6.28;;
30818;SDS011;17546;42.674;23.284;2023-06-05T14:03:09;26.58;;;6.18;;
30818;SDS011;17546;42.674;23.284;2023-06-05T14:05:34;10.85;;;4.80;;
30818;SDS011;17546;42.674;23.284;2023-06-05T14:08:01;9.43;;;6.15;;
30818;SDS011;17546;42.674;23.284;2023-06-05T14:10:27;12.32;;;6.00;;
30818;SDS011;17546;42.674;23.284;2023-06-05T14:12:52;33.45;;;6.47;;
30818;SDS011;17546;42.674;23.284;2023-06-05T14:15:18;19.92;;;6.35;;
30818;SDS011;17546;42.674;23.284;2023-06-05T14:17:45;22.17;;;6.75;;
30818;SDS011;17546;42.674;23.284;2023-06-05T14:20:12;25.67;;;6.60;;
30818;SDS011;17546;42.674;23.284;2023-06-05T14:22:38;20.38;;;6.75;;
30818;SDS011;17546;42.674;23.284;2023-06-05T14:25:04;12.45;;;7.95;;
30818;SDS011;17546;42.674;23.284;2023-06-05T14:27:31;18.85;;;5.75;;
30818;SDS011;17546;42.674;23.284;2023-06-05T14:29:56;13.18;;;5.70;;
30818;SDS011;17546;42.674;23.284;2023-06-05T14:32:22;12.48;;;5.32;;
30818;SDS011;17546;42.674;23.284;2023-06-05T14:34:47;15.73;;;6.38;;
30818;SDS011;17546;42.674;23.284;2023-06-05T14:37:13;13.50;;;6.55;;
30818;SDS011;17546;42.674;23.284;2023-06-05T14:39:38;10.45;;;5.70;;
30818;SDS011;17546;42.674;23.284;2023-06-05T14:42:04;9.80;;;5.55;;
30818;SDS011;17546;42.674;23.284;2023-06-05T14:44:30;15.30;;;5.57;;
30818;SDS011;17546;42.674;23.284;2023-06-05T14:46:56;27.15;;;6.32;;
30818;SDS011;17546;42.674;23.284;2023-06-05T14:49:22;20.02;;;6.60;;
30818;SDS011;17546;42.674;23.284;2023-06-05T14:51:48;20.88;;;5.72;;
30818;SDS011;17546;42.674;23.284;2023-06-05T14:54:13;10.20;;;5.50;;
30818;SDS011;17546;42.674;23.284;2023-06-05T14:56:39;10.57;;;6.03;;
30818;SDS011;17546;42.674;23.284;2023-06-05T14:59:04;12.80;;;5.85;;
30818;SDS011;17546;42.674;23.284;2023-06-05T15:01:30;9.02;;;6.03;;
30818;SDS011;17546;42.674;23.284;2023-06-05T15:03:56;17.60;;;6.70;;
30818;SDS011;17546;42.674;23.284;2023-06-05T15:06:23;21.38;;;8.10;;
30818;SDS011;17546;42.674;23.284;2023-06-05T15:08:48;24.10;;;6.15;;
30818;SDS011;17546;42.674;23.284;2023-06-05T15:11:13;13.57;;;5.90;;